Terminal Aerodrome Forecast
Issued by NWS

Home | Current Version | Previous Version | Text Only | Print | Product List | Glossary On
Versions: 1 2 3 4 5 6 7 8 9 10 11 12 13 14 15 16
000
FTUS45 KRIW 262336
TAFCPR
TAF
KCPR 262336Z 2700/2724 01010G20KT P6SM VCTS SCT040CB BKN070
     FM270300 04007KT P6SM SCT070
     FM271000 VRB06KT P6SM SCT070
     FM272000 06007KT P6SM VCSH SCT050 BKN080=

USA.gov is the U.S. government's official web portal to all federal, state and local government web resources and services.